Terminal Aerodrome Forecast
Issued by NWS Charleston, WV

Current Version | Previous Version | Graphics & Text | Print | Product List | Glossary On
Versions: 1 2 3 4 5 6 7 8 9 10 11 12 13 14 15 16 17 18 19 20 21 22 23 24 25
000
FTUS41 KRLX 302200 AAA
TAFEKN
TAF AMD
KEKN 302246Z 3023/3118 26005KT P6SM SCT050
     FM310000 00000KT P6SM VCSH BKN050
      TEMPO 3100/3102 5SM -SHRA OVC040
     FM310200 00000KT P6SM BKN040
     FM310500 00000KT P6SM SCT035
     FM310800 00000KT 3SM BR SCT035
     FM310900 00000KT 1/4SM FG OVC001
     FM311300 00000KT 2SM BR SCT035
     FM311400 VRB03KT 6SM BR HZ SCT035
     FM311600 27005KT P6SM SCT040=

USA.gov is the U.S. government's official web portal to all federal, state and local government web resources and services.